METAR Luftfahrt Wetterdaten     LSZH Zürich Airport
Temperatur
15°C Temperatur
13°C Taupunkt
88% Feuchtigkeit



Wind
11 KM/h
7 MPS
3 M/S
6 KTS



320°
NW
Aktuelle Wetterlage

Klar Klar
Luftdruck 1017.95 (hPa) - 30.06 (inHg)
Sichtweite 6 (Meile) - 9.7 (Km)
Flughafen
Flughafen Code LSZH

Position : Zürich Airport
Entfernung: 60 (Km)

Metar:
LSZH 250250Z AUTO 32006KT CAVOK 15/13 Q1018 NOSIG

Zeit: 25-07-2024 04:50 CEST